Main page
METAR-TAF:

METAR-TAF

Airports :

Avignon – Provence Airport

Avignon, France

latitude: 43-54-26N, longitude: 004-54-07E, elevation: 38 m

Current weather observation

The report was made 17 minutes ago, at 04:00 UTC
Calm wind
Temperature 1°C
Humidity 93%
Pressure 1026 hPa
Visibility 10 km or more
no clouds below 1500 m and no cumulonimbus

METAR: LFMV 210400Z AUTO 00000KT CAVOK 01/00 Q1026 BECMG 33010KT

Time: 05:17 (04:17 UTC)

Forecast

The report was made 2 hours and 17 minutes ago, at 02:00 UTC
Forecast valid from 21 at 03 UTC to 22 at 03 UTC
Wind 10 kt from the North/Northwest
Visibility 10 km or more
no clouds below 1500 m and no cumulonimbus
Becoming
from 21 at 07 UTC to 21 at 10 UTC
Wind 20 kt from the North/Northwest with gusts up to 35 kt
Becoming
from 21 at 23 UTC to 22 at 02 UTC
Wind 10 kt from the North

TAF: LFMV 210200Z 2103/2203 33010KT CAVOK BECMG 2107/2110 34020G35KT BECMG 2123/2202 35010KT

Weather observations and forecasts of more than 4000 airports (METAR and TAF reports).

The available stations are represented by yellow and red dots on the map.

Hover mouse over dot to see the name of the station.

Then click to see weather observations and forecasts.

To change the map : click on the green buttons with a black cross to zoom in, on the green button with a dash to zoom out, or on the green arrows for adjacent maps.


METAR-TAF: